sensor_id;sensor_type;location;lat;lon;timestamp;P1;P2;P0
50587;PMS7003;36546;50.516;30.826;2023-04-15T00:00:21;6.20;6.20;5.80
50587;PMS7003;36546;50.516;30.826;2023-04-15T00:01:25;7.90;7.90;6.20
50587;PMS7003;36546;50.516;30.826;2023-04-15T00:02:27;6.70;6.70;5.20
50587;PMS7003;36546;50.516;30.826;2023-04-15T00:03:30;7.00;6.40;5.00
50587;PMS7003;36546;50.516;30.826;2023-04-15T00:04:33;7.50;7.50;5.70
50587;PMS7003;36546;50.516;30.826;2023-04-15T00:05:35;7.40;7.30;6.30
50587;PMS7003;36546;50.516;30.826;2023-04-15T00:06:38;8.00;8.00;5.90
50587;PMS7003;36546;50.516;30.826;2023-04-15T00:07:40;8.70;8.40;6.70
50587;PMS7003;36546;50.516;30.826;2023-04-15T00:08:42;6.80;6.80;5.60
50587;PMS7003;36546;50.516;30.826;2023-04-15T00:09:44;7.00;7.00;5.80
50587;PMS7003;36546;50.516;30.826;2023-04-15T00:10:47;8.30;7.20;5.50
50587;PMS7003;36546;50.516;30.826;2023-04-15T00:11:49;7.60;6.80;5.50
50587;PMS7003;36546;50.516;30.826;2023-04-15T00:12:52;9.10;7.70;6.10
50587;PMS7003;36546;50.516;30.826;2023-04-15T00:13:54;6.70;6.10;5.20
50587;PMS7003;36546;50.516;30.826;2023-04-15T00:14:57;6.70;6.70;5.00
50587;PMS7003;36546;50.516;30.826;2023-04-15T00:16:00;10.20;8.30;6.10
50587;PMS7003;36546;50.516;30.826;2023-04-15T00:17:02;7.30;7.10;5.50
50587;PMS7003;36546;50.516;30.826;2023-04-15T00:18:06;8.50;7.40;5.80
50587;PMS7003;36546;50.516;30.826;2023-04-15T00:19:09;6.18;6.18;5.18
50587;PMS7003;36546;50.516;30.826;2023-04-15T00:20:13;6.60;6.60;5.70
50587;PMS7003;36546;50.516;30.826;2023-04-15T00:21:15;5.10;5.10;4.10
50587;PMS7003;36546;50.516;30.826;2023-04-15T00:22:17;7.00;6.60;5.40
50587;PMS7003;36546;50.516;30.826;2023-04-15T00:23:20;7.50;7.50;5.70
50587;PMS7003;36546;50.516;30.826;2023-04-15T00:24:22;4.90;4.90;4.40
50587;PMS7003;36546;50.516;30.826;2023-04-15T00:25:25;9.20;8.50;6.60
50587;PMS7003;36546;50.516;30.826;2023-04-15T00:26:27;7.00;7.00;5.90
50587;PMS7003;36546;50.516;30.826;2023-04-15T00:27:30;7.30;7.20;5.90
50587;PMS7003;36546;50.516;30.826;2023-04-15T00:28:32;8.10;7.10;5.50
50587;PMS7003;36546;50.516;30.826;2023-04-15T00:29:34;8.00;8.00;5.90
50587;PMS7003;36546;50.516;30.826;2023-04-15T00:30:37;6.90;6.90;5.30
50587;PMS7003;36546;50.516;30.826;2023-04-15T00:31:40;8.10;8.10;5.50
50587;PMS7003;36546;50.516;30.826;2023-04-15T00:32:42;8.60;7.80;6.40
50587;PMS7003;36546;50.516;30.826;2023-04-15T00:33:44;7.40;7.00;5.80
50587;PMS7003;36546;50.516;30.826;2023-04-15T00:34:47;7.50;6.60;5.50
50587;PMS7003;36546;50.516;30.826;2023-04-15T00:35:49;10.20;8.80;6.70
50587;PMS7003;36546;50.516;30.826;2023-04-15T00:36:52;7.70;7.10;5.80
50587;PMS7003;36546;50.516;30.826;2023-04-15T00:37:54;9.20;7.50;5.80
50587;PMS7003;36546;50.516;30.826;2023-04-15T00:38:57;8.30;8.10;5.80
50587;PMS7003;36546;50.516;30.826;2023-04-15T00:39:59;8.00;7.20;5.70
50587;PMS7003;36546;50.516;30.826;2023-04-15T00:41:02;6.55;5.73;4.09
50587;PMS7003;36546;50.516;30.826;2023-04-15T00:42:05;6.90;6.60;5.50
50587;PMS7003;36546;50.516;30.826;2023-04-15T00:43:07;7.80;7.30;5.70
50587;PMS7003;36546;50.516;30.826;2023-04-15T00:44:10;7.00;6.80;5.50
50587;PMS7003;36546;50.516;30.826;2023-04-15T00:45:12;8.60;7.30;6.10
50587;PMS7003;36546;50.516;30.826;2023-04-15T00:46:16;8.60;8.20;5.50
50587;PMS7003;36546;50.516;30.826;2023-04-15T00:47:21;6.70;6.50;5.10
50587;PMS7003;36546;50.516;30.826;2023-04-15T00:48:24;7.27;6.73;5.82
50587;PMS7003;36546;50.516;30.826;2023-04-15T00:49:27;8.30;7.90;6.00
50587;PMS7003;36546;50.516;30.826;2023-04-15T00:50:30;7.00;6.30;5.40
50587;PMS7003;36546;50.516;30.826;2023-04-15T00:51:33;7.50;7.50;6.20
50587;PMS7003;36546;50.516;30.826;2023-04-15T00:52:35;6.90;6.90;5.80
50587;PMS7003;36546;50.516;30.826;2023-04-15T00:53:38;7.40;7.40;5.80
50587;PMS7003;36546;50.516;30.826;2023-04-15T00:54:41;7.50;6.40;5.30
50587;PMS7003;36546;50.516;30.826;2023-04-15T00:55:43;7.90;7.10;5.80
50587;PMS7003;36546;50.516;30.826;2023-04-15T00:56:46;9.40;7.60;5.90
50587;PMS7003;36546;50.516;30.826;2023-04-15T00:57:48;9.30;8.30;6.30
50587;PMS7003;36546;50.516;30.826;2023-04-15T00:58:51;7.09;7.00;5.09
50587;PMS7003;36546;50.516;30.826;2023-04-15T00:59:54;6.80;6.80;5.30
50587;PMS7003;36546;50.516;30.826;2023-04-15T01:00:57;6.50;6.50;4.90
50587;PMS7003;36546;50.516;30.826;2023-04-15T01:02:00;7.80;7.70;6.30
50587;PMS7003;36546;50.516;30.826;2023-04-15T01:03:03;7.90;7.70;6.50
50587;PMS7003;36546;50.516;30.826;2023-04-15T01:04:06;8.50;8.50;6.60
50587;PMS7003;36546;50.516;30.826;2023-04-15T01:05:08;7.10;6.70;5.50
50587;PMS7003;36546;50.516;30.826;2023-04-15T01:06:11;6.00;6.00;5.40
50587;PMS7003;36546;50.516;30.826;2023-04-15T01:07:14;7.10;5.60;3.60
50587;PMS7003;36546;50.516;30.826;2023-04-15T01:08:16;6.90;6.90;5.50
50587;PMS7003;36546;50.516;30.826;2023-04-15T01:09:19;10.30;9.70;7.00
50587;PMS7003;36546;50.516;30.826;2023-04-15T01:10:21;9.20;8.40;6.30
50587;PMS7003;36546;50.516;30.826;2023-04-15T01:11:24;8.00;7.80;6.10
50587;PMS7003;36546;50.516;30.826;2023-04-15T01:12:26;7.60;6.90;5.60
50587;PMS7003;36546;50.516;30.826;2023-04-15T01:13:29;9.60;7.80;6.20
50587;PMS7003;36546;50.516;30.826;2023-04-15T01:14:33;7.40;7.40;6.30
50587;PMS7003;36546;50.516;30.826;2023-04-15T01:15:36;7.45;6.73;5.27
50587;PMS7003;36546;50.516;30.826;2023-04-15T01:16:38;8.20;8.00;6.50
50587;PMS7003;36546;50.516;30.826;2023-04-15T01:17:41;10.10;8.50;6.20
50587;PMS7003;36546;50.516;30.826;2023-04-15T01:18:44;10.90;9.70;7.30
50587;PMS7003;36546;50.516;30.826;2023-04-15T01:19:47;10.91;9.36;6.64
50587;PMS7003;36546;50.516;30.826;2023-04-15T01:20:49;9.00;8.80;6.40
50587;PMS7003;36546;50.516;30.826;2023-04-15T01:21:52;8.80;8.30;6.50
50587;PMS7003;36546;50.516;30.826;2023-04-15T01:22:55;10.82;9.36;7.36
50587;PMS7003;36546;50.516;30.826;2023-04-15T01:23:58;9.70;8.50;6.40
50587;PMS7003;36546;50.516;30.826;2023-04-15T01:25:01;9.50;8.50;6.90
50587;PMS7003;36546;50.516;30.826;2023-04-15T01:26:14;8.80;8.30;6.20
50587;PMS7003;36546;50.516;30.826;2023-04-15T01:27:16;10.10;8.60;7.20
50587;PMS7003;36546;50.516;30.826;2023-04-15T01:28:19;8.30;8.20;6.30
50587;PMS7003;36546;50.516;30.826;2023-04-15T01:29:21;11.90;8.70;6.40
50587;PMS7003;36546;50.516;30.826;2023-04-15T01:30:25;12.10;10.40;7.70
50587;PMS7003;36546;50.516;30.826;2023-04-15T01:31:28;9.20;8.70;6.50
50587;PMS7003;36546;50.516;30.826;2023-04-15T01:32:32;8.20;8.20;7.00
50587;PMS7003;36546;50.516;30.826;2023-04-15T01:33:34;6.10;6.10;3.60
50587;PMS7003;36546;50.516;30.826;2023-04-15T01:34:37;8.90;8.20;6.70
50587;PMS7003;36546;50.516;30.826;2023-04-15T01:35:39;8.80;7.90;6.50
50587;PMS7003;36546;50.516;30.826;2023-04-15T01:36:41;9.30;9.20;7.10
50587;PMS7003;36546;50.516;30.826;2023-04-15T01:37:44;9.50;9.50;7.60
50587;PMS7003;36546;50.516;30.826;2023-04-15T01:38:46;7.90;7.90;6.40
50587;PMS7003;36546;50.516;30.826;2023-04-15T01:39:48;8.50;8.10;6.60
50587;PMS7003;36546;50.516;30.826;2023-04-15T01:40:51;7.90;6.90;6.20
50587;PMS7003;36546;50.516;30.826;2023-04-15T01:41:53;10.70;8.90;7.00
50587;PMS7003;36546;50.516;30.826;2023-04-15T01:42:58;9.10;7.80;5.70
50587;PMS7003;36546;50.516;30.826;2023-04-15T01:44:01;9.50;8.60;6.40
50587;PMS7003;36546;50.516;30.826;2023-04-15T01:45:03;8.40;8.40;6.30
50587;PMS7003;36546;50.516;30.826;2023-04-15T01:46:07;8.10;8.10;7.00
50587;PMS7003;36546;50.516;30.826;2023-04-15T01:47:09;8.80;8.60;7.20
50587;PMS7003;36546;50.516;30.826;2023-04-15T01:48:11;8.60;8.00;6.20
50587;PMS7003;36546;50.516;30.826;2023-04-15T01:49:13;9.50;8.90;7.00
50587;PMS7003;36546;50.516;30.826;2023-04-15T01:50:17;9.20;8.70;6.70
50587;PMS7003;36546;50.516;30.826;2023-04-15T01:51:19;9.91;9.91;7.27
50587;PMS7003;36546;50.516;30.826;2023-04-15T01:52:24;9.50;9.20;7.10
50587;PMS7003;36546;50.516;30.826;2023-04-15T01:53:26;9.27;9.27;7.45
50587;PMS7003;36546;50.516;30.826;2023-04-15T01:54:29;8.50;8.50;7.00
50587;PMS7003;36546;50.516;30.826;2023-04-15T01:55:31;9.70;9.20;7.40
50587;PMS7003;36546;50.516;30.826;2023-04-15T01:56:34;11.00;9.50;7.70
50587;PMS7003;36546;50.516;30.826;2023-04-15T01:57:38;8.50;8.50;6.40
50587;PMS7003;36546;50.516;30.826;2023-04-15T01:58:40;9.80;9.80;7.80
50587;PMS7003;36546;50.516;30.826;2023-04-15T01:59:43;10.60;10.50;7.70
50587;PMS7003;36546;50.516;30.826;2023-04-15T02:00:45;10.20;9.20;7.40
50587;PMS7003;36546;50.516;30.826;2023-04-15T02:01:48;10.36;10.36;7.91
50587;PMS7003;36546;50.516;30.826;2023-04-15T02:02:50;12.30;9.70;7.80
50587;PMS7003;36546;50.516;30.826;2023-04-15T02:03:53;11.20;10.70;8.00
50587;PMS7003;36546;50.516;30.826;2023-04-15T02:04:55;11.90;10.10;7.90
50587;PMS7003;36546;50.516;30.826;2023-04-15T02:05:58;11.50;10.50;7.50
50587;PMS7003;36546;50.516;30.826;2023-04-15T02:07:00;10.10;9.80;7.80
50587;PMS7003;36546;50.516;30.826;2023-04-15T02:08:03;10.50;10.10;7.60
50587;PMS7003;36546;50.516;30.826;2023-04-15T02:09:05;8.10;8.10;6.90
50587;PMS7003;36546;50.516;30.826;2023-04-15T02:10:08;9.60;9.10;7.40
50587;PMS7003;36546;50.516;30.826;2023-04-15T02:11:10;10.70;10.30;8.50
50587;PMS7003;36546;50.516;30.826;2023-04-15T02:12:13;9.18;8.91;6.45
50587;PMS7003;36546;50.516;30.826;2023-04-15T02:13:16;10.20;9.10;7.20
50587;PMS7003;36546;50.516;30.826;2023-04-15T02:14:18;11.80;9.80;8.30
50587;PMS7003;36546;50.516;30.826;2023-04-15T02:15:21;12.00;9.91;8.09
50587;PMS7003;36546;50.516;30.826;2023-04-15T02:16:24;10.90;9.20;7.20
50587;PMS7003;36546;50.516;30.826;2023-04-15T02:17:26;9.60;9.60;7.90
50587;PMS7003;36546;50.516;30.826;2023-04-15T02:18:29;9.80;9.60;7.50
50587;PMS7003;36546;50.516;30.826;2023-04-15T02:19:34;12.00;11.30;8.00
50587;PMS7003;36546;50.516;30.826;2023-04-15T02:20:38;10.30;10.20;8.00
50587;PMS7003;36546;50.516;30.826;2023-04-15T02:21:40;13.30;9.80;7.90
50587;PMS7003;36546;50.516;30.826;2023-04-15T02:22:43;10.20;10.00;8.00
50587;PMS7003;36546;50.516;30.826;2023-04-15T02:23:45;10.60;10.60;8.10
50587;PMS7003;36546;50.516;30.826;2023-04-15T02:24:48;11.18;10.36;7.82
50587;PMS7003;36546;50.516;30.826;2023-04-15T02:25:50;10.10;10.10;7.40
50587;PMS7003;36546;50.516;30.826;2023-04-15T02:26:55;11.10;10.00;7.60
50587;PMS7003;36546;50.516;30.826;2023-04-15T02:27:57;8.50;7.90;7.20
50587;PMS7003;36546;50.516;30.826;2023-04-15T02:29:00;9.30;9.30;6.80
50587;PMS7003;36546;50.516;30.826;2023-04-15T02:30:03;11.00;9.80;7.90
50587;PMS7003;36546;50.516;30.826;2023-04-15T02:31:08;12.00;9.60;7.50
50587;PMS7003;36546;50.516;30.826;2023-04-15T02:33:28;11.80;11.20;7.70
50587;PMS7003;36546;50.516;30.826;2023-04-15T02:34:32;10.00;9.30;7.70
50587;PMS7003;36546;50.516;30.826;2023-04-15T02:35:35;10.45;9.64;7.82
50587;PMS7003;36546;50.516;30.826;2023-04-15T02:36:38;5.80;5.80;4.40
50587;PMS7003;36546;50.516;30.826;2023-04-15T02:37:41;11.90;11.90;8.90
50587;PMS7003;36546;50.516;30.826;2023-04-15T02:38:43;10.30;9.30;8.00
50587;PMS7003;36546;50.516;30.826;2023-04-15T02:39:47;9.80;9.80;7.00
50587;PMS7003;36546;50.516;30.826;2023-04-15T02:40:50;10.82;10.82;8.55
50587;PMS7003;36546;50.516;30.826;2023-04-15T02:41:52;10.30;9.60;8.00
50587;PMS7003;36546;50.516;30.826;2023-04-15T02:42:55;12.30;10.20;7.10
50587;PMS7003;36546;50.516;30.826;2023-04-15T02:43:58;11.30;10.00;8.40
50587;PMS7003;36546;50.516;30.826;2023-04-15T02:45:00;10.60;8.90;7.60
50587;PMS7003;36546;50.516;30.826;2023-04-15T02:46:05;10.10;9.20;7.70
50587;PMS7003;36546;50.516;30.826;2023-04-15T02:47:08;10.80;9.50;7.60
50587;PMS7003;36546;50.516;30.826;2023-04-15T02:48:10;10.70;10.70;7.80
50587;PMS7003;36546;50.516;30.826;2023-04-15T02:49:13;9.40;8.90;6.80
50587;PMS7003;36546;50.516;30.826;2023-04-15T02:50:17;10.90;9.70;7.70
50587;PMS7003;36546;50.516;30.826;2023-04-15T02:51:20;9.40;8.70;6.80
50587;PMS7003;36546;50.516;30.826;2023-04-15T02:52:23;11.10;10.40;7.50
50587;PMS7003;36546;50.516;30.826;2023-04-15T02:53:25;11.20;10.30;7.50
50587;PMS7003;36546;50.516;30.826;2023-04-15T02:54:28;11.20;10.00;7.80
50587;PMS7003;36546;50.516;30.826;2023-04-15T02:55:31;12.09;11.18;7.82
50587;PMS7003;36546;50.516;30.826;2023-04-15T02:56:33;10.30;10.10;8.00
50587;PMS7003;36546;50.516;30.826;2023-04-15T02:57:35;10.00;10.00;8.20
50587;PMS7003;36546;50.516;30.826;2023-04-15T02:58:40;10.90;10.70;7.50
50587;PMS7003;36546;50.516;30.826;2023-04-15T02:59:44;9.40;9.40;7.30
50587;PMS7003;36546;50.516;30.826;2023-04-15T03:00:48;10.90;10.00;7.20
50587;PMS7003;36546;50.516;30.826;2023-04-15T03:01:50;10.60;9.90;7.70
50587;PMS7003;36546;50.516;30.826;2023-04-15T03:02:56;11.60;10.20;7.70
50587;PMS7003;36546;50.516;30.826;2023-04-15T03:04:02;10.40;10.40;7.50
50587;PMS7003;36546;50.516;30.826;2023-04-15T03:05:05;13.70;11.20;7.80
50587;PMS7003;36546;50.516;30.826;2023-04-15T03:06:08;11.00;10.60;8.10
50587;PMS7003;36546;50.516;30.826;2023-04-15T03:07:11;11.00;9.45;8.18
50587;PMS7003;36546;50.516;30.826;2023-04-15T03:08:14;11.70;11.30;9.10
50587;PMS7003;36546;50.516;30.826;2023-04-15T03:09:16;11.60;10.00;8.20
50587;PMS7003;36546;50.516;30.826;2023-04-15T03:10:19;9.80;9.10;7.90
50587;PMS7003;36546;50.516;30.826;2023-04-15T03:11:22;9.70;9.70;7.60
50587;PMS7003;36546;50.516;30.826;2023-04-15T03:12:25;9.40;8.90;7.70
50587;PMS7003;36546;50.516;30.826;2023-04-15T03:13:28;9.30;8.60;6.30
50587;PMS7003;36546;50.516;30.826;2023-04-15T03:14:31;10.20;9.00;6.30
50587;PMS7003;36546;50.516;30.826;2023-04-15T03:15:34;11.40;10.50;8.40
50587;PMS7003;36546;50.516;30.826;2023-04-15T03:16:36;12.60;10.20;7.20
50587;PMS7003;36546;50.516;30.826;2023-04-15T03:17:38;11.30;10.70;7.90
50587;PMS7003;36546;50.516;30.826;2023-04-15T03:18:41;9.64;9.64;7.09
50587;PMS7003;36546;50.516;30.826;2023-04-15T03:19:44;10.80;10.20;8.00
50587;PMS7003;36546;50.516;30.826;2023-04-15T03:20:46;11.50;10.40;8.00
50587;PMS7003;36546;50.516;30.826;2023-04-15T03:21:48;11.30;10.60;8.20
50587;PMS7003;36546;50.516;30.826;2023-04-15T03:22:51;10.50;10.20;8.20
50587;PMS7003;36546;50.516;30.826;2023-04-15T03:23:54;10.50;10.10;8.00
50587;PMS7003;36546;50.516;30.826;2023-04-15T03:24:58;10.40;10.40;7.70
50587;PMS7003;36546;50.516;30.826;2023-04-15T03:26:03;11.60;10.60;8.10
50587;PMS7003;36546;50.516;30.826;2023-04-15T03:27:06;10.10;9.20;6.90
50587;PMS7003;36546;50.516;30.826;2023-04-15T03:28:09;10.40;9.60;7.10
50587;PMS7003;36546;50.516;30.826;2023-04-15T03:29:12;10.90;10.70;8.30
50587;PMS7003;36546;50.516;30.826;2023-04-15T03:30:14;13.36;11.36;8.18
50587;PMS7003;36546;50.516;30.826;2023-04-15T03:31:17;11.55;11.00;7.82
50587;PMS7003;36546;50.516;30.826;2023-04-15T03:32:20;11.40;9.70;8.40
50587;PMS7003;36546;50.516;30.826;2023-04-15T03:33:22;11.20;10.80;8.30
50587;PMS7003;36546;50.516;30.826;2023-04-15T03:34:25;11.50;10.70;8.60
50587;PMS7003;36546;50.516;30.826;2023-04-15T03:35:28;13.00;12.20;8.70
50587;PMS7003;36546;50.516;30.826;2023-04-15T03:36:31;11.80;10.60;7.50
50587;PMS7003;36546;50.516;30.826;2023-04-15T03:37:34;11.50;10.20;8.40
50587;PMS7003;36546;50.516;30.826;2023-04-15T03:38:37;13.20;11.10;8.80
50587;PMS7003;36546;50.516;30.826;2023-04-15T03:39:39;11.40;10.10;8.50
50587;PMS7003;36546;50.516;30.826;2023-04-15T03:40:42;13.50;12.10;9.00
50587;PMS7003;36546;50.516;30.826;2023-04-15T03:41:44;11.80;11.30;8.10
50587;PMS7003;36546;50.516;30.826;2023-04-15T03:42:47;13.73;12.45;8.82
50587;PMS7003;36546;50.516;30.826;2023-04-15T03:43:49;13.90;11.40;9.00
50587;PMS7003;36546;50.516;30.826;2023-04-15T03:44:52;11.30;11.30;9.10
50587;PMS7003;36546;50.516;30.826;2023-04-15T03:45:55;12.60;12.10;9.30
50587;PMS7003;36546;50.516;30.826;2023-04-15T03:46:58;11.20;10.60;8.40
50587;PMS7003;36546;50.516;30.826;2023-04-15T03:48:00;11.60;11.30;8.60
50587;PMS7003;36546;50.516;30.826;2023-04-15T03:49:05;13.60;11.50;8.50
50587;PMS7003;36546;50.516;30.826;2023-04-15T03:50:09;11.70;10.80;7.80
50587;PMS7003;36546;50.516;30.826;2023-04-15T03:51:11;11.80;9.70;7.50
50587;PMS7003;36546;50.516;30.826;2023-04-15T03:52:13;11.80;10.20;7.60
50587;PMS7003;36546;50.516;30.826;2023-04-15T03:53:16;10.20;10.20;7.80
50587;PMS7003;36546;50.516;30.826;2023-04-15T03:54:18;11.00;10.20;7.90
50587;PMS7003;36546;50.516;30.826;2023-04-15T03:55:20;10.80;9.80;7.60
50587;PMS7003;36546;50.516;30.826;2023-04-15T03:56:22;9.60;9.60;7.50
50587;PMS7003;36546;50.516;30.826;2023-04-15T03:57:25;12.00;11.40;8.20
50587;PMS7003;36546;50.516;30.826;2023-04-15T03:58:27;10.50;9.00;7.00
50587;PMS7003;36546;50.516;30.826;2023-04-15T03:59:30;11.50;11.00;9.00
50587;PMS7003;36546;50.516;30.826;2023-04-15T04:00:33;12.20;10.80;8.60
50587;PMS7003;36546;50.516;30.826;2023-04-15T04:01:35;11.10;10.50;7.90
50587;PMS7003;36546;50.516;30.826;2023-04-15T04:02:37;11.60;10.00;7.50
50587;PMS7003;36546;50.516;30.826;2023-04-15T04:03:40;13.90;9.80;7.30
50587;PMS7003;36546;50.516;30.826;2023-04-15T04:04:43;10.73;10.00;8.00
50587;PMS7003;36546;50.516;30.826;2023-04-15T04:05:45;11.00;10.40;8.10
50587;PMS7003;36546;50.516;30.826;2023-04-15T04:06:48;9.40;9.40;7.70
50587;PMS7003;36546;50.516;30.826;2023-04-15T04:07:50;11.40;9.40;6.80
50587;PMS7003;36546;50.516;30.826;2023-04-15T04:08:52;9.70;8.50;7.00
50587;PMS7003;36546;50.516;30.826;2023-04-15T04:09:56;10.40;9.20;6.90
50587;PMS7003;36546;50.516;30.826;2023-04-15T04:10:58;11.10;10.10;7.60
50587;PMS7003;36546;50.516;30.826;2023-04-15T04:12:01;10.60;10.40;8.40
50587;PMS7003;36546;50.516;30.826;2023-04-15T04:13:03;10.10;9.20;8.20
50587;PMS7003;36546;50.516;30.826;2023-04-15T04:14:06;11.36;9.27;7.64
50587;PMS7003;36546;50.516;30.826;2023-04-15T04:15:08;12.60;12.10;9.40
50587;PMS7003;36546;50.516;30.826;2023-04-15T04:16:11;12.60;10.30;7.40
50587;PMS7003;36546;50.516;30.826;2023-04-15T04:17:14;12.36;11.64;7.73
50587;PMS7003;36546;50.516;30.826;2023-04-15T04:18:18;11.00;10.80;7.80
50587;PMS7003;36546;50.516;30.826;2023-04-15T04:19:21;9.80;9.80;8.00
50587;PMS7003;36546;50.516;30.826;2023-04-15T04:20:24;11.40;10.30;7.00
50587;PMS7003;36546;50.516;30.826;2023-04-15T04:21:27;10.90;9.80;7.80
50587;PMS7003;36546;50.516;30.826;2023-04-15T04:22:30;10.90;9.40;8.20
50587;PMS7003;36546;50.516;30.826;2023-04-15T04:23:33;12.00;9.30;7.20
50587;PMS7003;36546;50.516;30.826;2023-04-15T04:24:36;12.10;11.10;8.40
50587;PMS7003;36546;50.516;30.826;2023-04-15T04:25:39;12.55;11.18;8.45
50587;PMS7003;36546;50.516;30.826;2023-04-15T04:28:02;11.00;10.40;7.90
50587;PMS7003;36546;50.516;30.826;2023-04-15T04:29:04;10.36;10.36;7.64
50587;PMS7003;36546;50.516;30.826;2023-04-15T04:30:07;9.80;9.80;8.00
50587;PMS7003;36546;50.516;30.826;2023-04-15T04:31:09;11.60;10.40;7.80
50587;PMS7003;36546;50.516;30.826;2023-04-15T04:32:13;10.80;10.40;7.70
50587;PMS7003;36546;50.516;30.826;2023-04-15T04:33:15;14.40;12.90;9.40
50587;PMS7003;36546;50.516;30.826;2023-04-15T04:34:18;12.18;10.18;8.09
50587;PMS7003;36546;50.516;30.826;2023-04-15T04:35:20;11.50;10.90;8.10
50587;PMS7003;36546;50.516;30.826;2023-04-15T04:36:23;11.40;10.70;8.50
50587;PMS7003;36546;50.516;30.826;2023-04-15T04:37:25;11.50;10.80;7.40
50587;PMS7003;36546;50.516;30.826;2023-04-15T04:38:27;10.20;9.70;6.60
50587;PMS7003;36546;50.516;30.826;2023-04-15T04:39:30;10.82;9.64;7.55
50587;PMS7003;36546;50.516;30.826;2023-04-15T04:40:32;11.70;11.20;7.60
50587;PMS7003;36546;50.516;30.826;2023-04-15T04:41:34;8.50;8.00;6.00
50587;PMS7003;36546;50.516;30.826;2023-04-15T04:42:37;10.20;9.90;7.00
50587;PMS7003;36546;50.516;30.826;2023-04-15T04:43:41;8.40;8.40;6.50
50587;PMS7003;36546;50.516;30.826;2023-04-15T04:44:44;11.50;9.80;8.30
50587;PMS7003;36546;50.516;30.826;2023-04-15T04:45:47;10.40;10.40;7.60
50587;PMS7003;36546;50.516;30.826;2023-04-15T04:46:50;10.20;10.20;7.10
50587;PMS7003;36546;50.516;30.826;2023-04-15T04:47:52;12.80;11.20;8.40
50587;PMS7003;36546;50.516;30.826;2023-04-15T04:48:55;12.00;10.50;7.30
50587;PMS7003;36546;50.516;30.826;2023-04-15T04:49:57;8.20;8.20;6.80
50587;PMS7003;36546;50.516;30.826;2023-04-15T04:50:59;8.90;8.90;7.40
50587;PMS7003;36546;50.516;30.826;2023-04-15T04:52:02;10.40;8.40;6.70
50587;PMS7003;36546;50.516;30.826;2023-04-15T04:53:04;9.50;8.80;7.70
50587;PMS7003;36546;50.516;30.826;2023-04-15T04:54:07;9.60;9.60;7.50
50587;PMS7003;36546;50.516;30.826;2023-04-15T04:55:09;10.70;8.70;6.70
50587;PMS7003;36546;50.516;30.826;2023-04-15T04:56:12;9.30;8.80;6.80
50587;PMS7003;36546;50.516;30.826;2023-04-15T04:57:15;9.40;8.70;7.50
50587;PMS7003;36546;50.516;30.826;2023-04-15T04:58:17;10.00;8.90;6.40
50587;PMS7003;36546;50.516;30.826;2023-04-15T04:59:20;9.80;9.50;7.30
50587;PMS7003;36546;50.516;30.826;2023-04-15T05:00:22;10.10;8.80;6.80
50587;PMS7003;36546;50.516;30.826;2023-04-15T05:01:25;9.80;8.80;6.40
50587;PMS7003;36546;50.516;30.826;2023-04-15T05:02:28;10.20;9.50;6.90
50587;PMS7003;36546;50.516;30.826;2023-04-15T05:03:30;10.90;9.50;6.80
50587;PMS7003;36546;50.516;30.826;2023-04-15T05:04:32;8.80;8.80;6.60
50587;PMS7003;36546;50.516;30.826;2023-04-15T05:05:35;10.10;9.10;6.70
50587;PMS7003;36546;50.516;30.826;2023-04-15T05:06:37;8.60;8.60;6.40
50587;PMS7003;36546;50.516;30.826;2023-04-15T05:07:39;11.00;9.80;7.40
50587;PMS7003;36546;50.516;30.826;2023-04-15T05:08:42;9.90;8.60;7.00
50587;PMS7003;36546;50.516;30.826;2023-04-15T05:09:44;10.70;9.30;7.60
50587;PMS7003;36546;50.516;30.826;2023-04-15T05:10:47;9.50;9.40;7.70
50587;PMS7003;36546;50.516;30.826;2023-04-15T05:11:49;8.80;8.80;6.90
50587;PMS7003;36546;50.516;30.826;2023-04-15T05:12:51;8.10;8.00;6.90
50587;PMS7003;36546;50.516;30.826;2023-04-15T05:13:53;10.00;8.80;7.70
50587;PMS7003;36546;50.516;30.826;2023-04-15T05:14:55;10.30;8.80;7.10
50587;PMS7003;36546;50.516;30.826;2023-04-15T05:15:57;9.00;9.00;7.00
50587;PMS7003;36546;50.516;30.826;2023-04-15T05:17:01;11.50;9.70;7.40
50587;PMS7003;36546;50.516;30.826;2023-04-15T05:18:03;11.50;11.00;7.80
50587;PMS7003;36546;50.516;30.826;2023-04-15T05:19:05;8.60;8.60;6.40
50587;PMS7003;36546;50.516;30.826;2023-04-15T05:20:09;9.91;9.73;6.82
50587;PMS7003;36546;50.516;30.826;2023-04-15T05:21:12;11.80;8.90;7.20
50587;PMS7003;36546;50.516;30.826;2023-04-15T05:22:14;10.20;10.20;7.70
50587;PMS7003;36546;50.516;30.826;2023-04-15T05:23:16;9.70;9.50;6.30
50587;PMS7003;36546;50.516;30.826;2023-04-15T05:24:18;9.00;8.20;6.80
50587;PMS7003;36546;50.516;30.826;2023-04-15T05:25:21;10.30;9.70;7.70
50587;PMS7003;36546;50.516;30.826;2023-04-15T05:26:23;9.40;8.60;6.90
50587;PMS7003;36546;50.516;30.826;2023-04-15T05:27:26;10.20;9.10;6.80
50587;PMS7003;36546;50.516;30.826;2023-04-15T05:28:28;8.44;8.44;6.11
50587;PMS7003;36546;50.516;30.826;2023-04-15T05:29:31;10.10;8.60;7.00
50587;PMS7003;36546;50.516;30.826;2023-04-15T05:30:33;8.50;7.80;6.20
50587;PMS7003;36546;50.516;30.826;2023-04-15T05:31:35;11.30;9.20;7.30
50587;PMS7003;36546;50.516;30.826;2023-04-15T05:32:38;10.20;9.20;7.00
50587;PMS7003;36546;50.516;30.826;2023-04-15T05:33:40;8.40;8.40;6.70
50587;PMS7003;36546;50.516;30.826;2023-04-15T05:34:43;12.27;9.64;6.73
50587;PMS7003;36546;50.516;30.826;2023-04-15T05:35:46;10.50;9.80;7.50
50587;PMS7003;36546;50.516;30.826;2023-04-15T05:36:48;8.10;7.80;6.80
50587;PMS7003;36546;50.516;30.826;2023-04-15T05:37:50;10.50;10.30;8.30
50587;PMS7003;36546;50.516;30.826;2023-04-15T05:38:53;10.60;9.30;7.40
50587;PMS7003;36546;50.516;30.826;2023-04-15T05:39:56;11.27;9.64;7.55
50587;PMS7003;36546;50.516;30.826;2023-04-15T05:40:58;10.20;10.20;7.10
50587;PMS7003;36546;50.516;30.826;2023-04-15T05:42:00;10.10;9.60;7.40
50587;PMS7003;36546;50.516;30.826;2023-04-15T05:43:03;9.20;8.80;7.40
50587;PMS7003;36546;50.516;30.826;2023-04-15T05:44:05;8.10;7.60;6.10
50587;PMS7003;36546;50.516;30.826;2023-04-15T05:45:08;9.73;9.36;6.64
50587;PMS7003;36546;50.516;30.826;2023-04-15T05:46:11;8.70;8.70;6.70
50587;PMS7003;36546;50.516;30.826;2023-04-15T05:47:14;11.00;9.30;7.60
50587;PMS7003;36546;50.516;30.826;2023-04-15T05:48:16;9.50;9.50;7.70
50587;PMS7003;36546;50.516;30.826;2023-04-15T05:49:18;9.40;8.80;6.70
50587;PMS7003;36546;50.516;30.826;2023-04-15T05:50:21;10.90;9.20;7.70
50587;PMS7003;36546;50.516;30.826;2023-04-15T05:51:23;10.30;10.00;7.20
50587;PMS7003;36546;50.516;30.826;2023-04-15T05:52:25;8.90;8.90;6.50
50587;PMS7003;36546;50.516;30.826;2023-04-15T05:53:27;9.40;9.40;6.70
50587;PMS7003;36546;50.516;30.826;2023-04-15T05:54:30;7.27;7.27;6.27
50587;PMS7003;36546;50.516;30.826;2023-04-15T05:55:32;9.20;7.10;5.50
50587;PMS7003;36546;50.516;30.826;2023-04-15T05:56:35;2.60;2.20;2.00
50587;PMS7003;36546;50.516;30.826;2023-04-15T05:57:38;11.00;9.70;7.40
50587;PMS7003;36546;50.516;30.826;2023-04-15T05:58:40;9.60;9.60;7.60
50587;PMS7003;36546;50.516;30.826;2023-04-15T05:59:42;8.44;8.00;6.78